sensor_id;sensor_type;location;lat;lon;timestamp;P1;durP1;ratioP1;P2;durP2;ratioP2
9964;SDS011;5023;53.554;9.964;2022-07-24T00:01:08;6.15;;;5.55;;
9964;SDS011;5023;53.554;9.964;2022-07-24T00:06:14;8.00;;;6.65;;
9964;SDS011;5023;53.554;9.964;2022-07-24T00:11:20;8.20;;;5.47;;
9964;SDS011;5023;53.554;9.964;2022-07-24T00:16:23;11.98;;;8.07;;
9964;SDS011;5023;53.554;9.964;2022-07-24T00:21:27;8.63;;;6.50;;
9964;SDS011;5023;53.554;9.964;2022-07-24T00:26:50;7.60;;;6.85;;
9964;SDS011;5023;53.554;9.964;2022-07-24T00:31:54;6.97;;;6.28;;
9964;SDS011;5023;53.554;9.964;2022-07-24T00:37:18;7.47;;;5.97;;
9964;SDS011;5023;53.554;9.964;2022-07-24T00:42:41;6.78;;;6.18;;
9964;SDS011;5023;53.554;9.964;2022-07-24T00:47:45;6.32;;;5.07;;
9964;SDS011;5023;53.554;9.964;2022-07-24T00:52:53;5.90;;;5.30;;
9964;SDS011;5023;53.554;9.964;2022-07-24T00:57:58;6.55;;;5.30;;
9964;SDS011;5023;53.554;9.964;2022-07-24T01:03:00;5.65;;;5.15;;
9964;SDS011;5023;53.554;9.964;2022-07-24T01:08:06;7.53;;;6.20;;
9964;SDS011;5023;53.554;9.964;2022-07-24T01:13:09;5.30;;;4.80;;
9964;SDS011;5023;53.554;9.964;2022-07-24T01:18:43;6.57;;;5.50;;
9964;SDS011;5023;53.554;9.964;2022-07-24T01:23:49;5.95;;;5.45;;
9964;SDS011;5023;53.554;9.964;2022-07-24T01:28:52;5.07;;;4.68;;
9964;SDS011;5023;53.554;9.964;2022-07-24T01:33:58;4.72;;;4.28;;
9964;SDS011;5023;53.554;9.964;2022-07-24T01:39:02;4.60;;;4.20;;
9964;SDS011;5023;53.554;9.964;2022-07-24T01:44:40;5.28;;;4.38;;
9964;SDS011;5023;53.554;9.964;2022-07-24T01:49:44;5.45;;;4.15;;
9964;SDS011;5023;53.554;9.964;2022-07-24T01:54:50;4.50;;;4.10;;
9964;SDS011;5023;53.554;9.964;2022-07-24T01:59:58;5.82;;;4.32;;
9964;SDS011;5023;53.554;9.964;2022-07-24T02:05:01;4.50;;;4.07;;
9964;SDS011;5023;53.554;9.964;2022-07-24T02:10:11;4.97;;;4.47;;
9964;SDS011;5023;53.554;9.964;2022-07-24T02:15:14;4.63;;;4.22;;
9964;SDS011;5023;53.554;9.964;2022-07-24T02:20:18;4.55;;;4.15;;
9964;SDS011;5023;53.554;9.964;2022-07-24T02:25:22;5.75;;;5.15;;
9964;SDS011;5023;53.554;9.964;2022-07-24T02:30:25;5.63;;;5.13;;
9964;SDS011;5023;53.554;9.964;2022-07-24T02:35:28;12.45;;;11.18;;
9964;SDS011;5023;53.554;9.964;2022-07-24T02:40:31;5.82;;;5.30;;
9964;SDS011;5023;53.554;9.964;2022-07-24T02:45:35;8.20;;;5.70;;
9964;SDS011;5023;53.554;9.964;2022-07-24T02:50:38;6.10;;;5.50;;
9964;SDS011;5023;53.554;9.964;2022-07-24T02:55:41;7.20;;;5.43;;
9964;SDS011;5023;53.554;9.964;2022-07-24T03:00:47;7.68;;;5.75;;
9964;SDS011;5023;53.554;9.964;2022-07-24T03:05:53;7.32;;;5.68;;
9964;SDS011;5023;53.554;9.964;2022-07-24T03:10:57;8.57;;;6.10;;
9964;SDS011;5023;53.554;9.964;2022-07-24T03:15:59;5.95;;;5.13;;
9964;SDS011;5023;53.554;9.964;2022-07-24T03:21:03;5.50;;;4.82;;
9964;SDS011;5023;53.554;9.964;2022-07-24T03:26:08;5.70;;;4.82;;
9964;SDS011;5023;53.554;9.964;2022-07-24T03:31:11;5.72;;;4.53;;
9964;SDS011;5023;53.554;9.964;2022-07-24T03:36:13;4.43;;;4.00;;
9964;SDS011;5023;53.554;9.964;2022-07-24T03:41:18;4.10;;;3.80;;
9964;SDS011;5023;53.554;9.964;2022-07-24T03:46:21;4.57;;;4.18;;
9964;SDS011;5023;53.554;9.964;2022-07-24T03:51:23;4.57;;;3.50;;
9964;SDS011;5023;53.554;9.964;2022-07-24T03:56:31;4.32;;;3.75;;
9964;SDS011;5023;53.554;9.964;2022-07-24T04:01:33;7.15;;;4.60;;
9964;SDS011;5023;53.554;9.964;2022-07-24T04:06:35;4.90;;;4.03;;
9964;SDS011;5023;53.554;9.964;2022-07-24T04:11:39;4.53;;;4.13;;
9964;SDS011;5023;53.554;9.964;2022-07-24T04:16:41;5.65;;;4.55;;
9964;SDS011;5023;53.554;9.964;2022-07-24T04:21:43;6.30;;;4.40;;
9964;SDS011;5023;53.554;9.964;2022-07-24T04:26:47;4.82;;;3.83;;
9964;SDS011;5023;53.554;9.964;2022-07-24T04:31:49;5.43;;;3.95;;
9964;SDS011;5023;53.554;9.964;2022-07-24T04:36:51;3.90;;;3.60;;
9964;SDS011;5023;53.554;9.964;2022-07-24T04:41:55;4.55;;;3.95;;
9964;SDS011;5023;53.554;9.964;2022-07-24T04:46:57;4.10;;;3.80;;
9964;SDS011;5023;53.554;9.964;2022-07-24T04:51:59;5.50;;;3.80;;
9964;SDS011;5023;53.554;9.964;2022-07-24T04:57:03;4.30;;;3.92;;
9964;SDS011;5023;53.554;9.964;2022-07-24T05:02:05;5.47;;;4.50;;
9964;SDS011;5023;53.554;9.964;2022-07-24T05:07:07;4.53;;;4.07;;
9964;SDS011;5023;53.554;9.964;2022-07-24T05:12:11;3.95;;;3.55;;
9964;SDS011;5023;53.554;9.964;2022-07-24T05:17:14;3.80;;;3.50;;
9964;SDS011;5023;53.554;9.964;2022-07-24T05:22:16;3.65;;;3.35;;
9964;SDS011;5023;53.554;9.964;2022-07-24T05:27:21;7.35;;;4.05;;
9964;SDS011;5023;53.554;9.964;2022-07-24T05:32:23;4.10;;;3.72;;
9964;SDS011;5023;53.554;9.964;2022-07-24T05:37:25;3.45;;;3.15;;
9964;SDS011;5023;53.554;9.964;2022-07-24T05:42:29;3.70;;;3.40;;
9964;SDS011;5023;53.554;9.964;2022-07-24T05:47:34;3.30;;;3.08;;
9964;SDS011;5023;53.554;9.964;2022-07-24T05:52:37;3.85;;;3.22;;
9964;SDS011;5023;53.554;9.964;2022-07-24T05:57:41;3.80;;;3.17;;
9964;SDS011;5023;53.554;9.964;2022-07-24T06:02:46;3.28;;;3.00;;
9964;SDS011;5023;53.554;9.964;2022-07-24T06:07:49;3.35;;;3.03;;
9964;SDS011;5023;53.554;9.964;2022-07-24T06:12:54;3.95;;;2.90;;
9964;SDS011;5023;53.554;9.964;2022-07-24T06:17:58;3.10;;;2.80;;
9964;SDS011;5023;53.554;9.964;2022-07-24T06:23:01;2.80;;;2.60;;
9964;SDS011;5023;53.554;9.964;2022-07-24T06:28:05;2.80;;;2.65;;
9964;SDS011;5023;53.554;9.964;2022-07-24T06:33:07;2.67;;;2.47;;
9964;SDS011;5023;53.554;9.964;2022-07-24T06:38:13;3.10;;;2.47;;
9964;SDS011;5023;53.554;9.964;2022-07-24T06:43:17;3.53;;;2.58;;
9964;SDS011;5023;53.554;9.964;2022-07-24T06:48:20;3.17;;;2.97;;
9964;SDS011;5023;53.554;9.964;2022-07-24T06:53:23;2.90;;;2.70;;
9964;SDS011;5023;53.554;9.964;2022-07-24T06:58:29;3.13;;;2.45;;
9964;SDS011;5023;53.554;9.964;2022-07-24T07:03:31;2.33;;;2.13;;
9964;SDS011;5023;53.554;9.964;2022-07-24T07:08:34;2.58;;;2.38;;
9964;SDS011;5023;53.554;9.964;2022-07-24T07:13:37;2.45;;;2.25;;
9964;SDS011;5023;53.554;9.964;2022-07-24T07:18:40;2.53;;;2.30;;
9964;SDS011;5023;53.554;9.964;2022-07-24T07:23:42;2.50;;;2.30;;
9964;SDS011;5023;53.554;9.964;2022-07-24T07:28:45;3.10;;;2.40;;
9964;SDS011;5023;53.554;9.964;2022-07-24T07:33:48;2.22;;;2.08;;
9964;SDS011;5023;53.554;9.964;2022-07-24T07:38:50;2.78;;;2.58;;
9964;SDS011;5023;53.554;9.964;2022-07-24T07:43:59;3.88;;;3.58;;
9964;SDS011;5023;53.554;9.964;2022-07-24T07:49:01;2.58;;;2.38;;
9964;SDS011;5023;53.554;9.964;2022-07-24T07:54:04;2.75;;;2.20;;
9964;SDS011;5023;53.554;9.964;2022-07-24T07:59:08;2.20;;;2.10;;
9964;SDS011;5023;53.554;9.964;2022-07-24T08:04:10;2.50;;;2.30;;
9964;SDS011;5023;53.554;9.964;2022-07-24T08:09:13;2.67;;;2.45;;
9964;SDS011;5023;53.554;9.964;2022-07-24T08:14:17;2.80;;;2.60;;
9964;SDS011;5023;53.554;9.964;2022-07-24T08:19:19;2.50;;;2.40;;
9964;SDS011;5023;53.554;9.964;2022-07-24T08:24:22;2.40;;;2.30;;
9964;SDS011;5023;53.554;9.964;2022-07-24T08:29:26;3.30;;;3.00;;
9964;SDS011;5023;53.554;9.964;2022-07-24T08:34:28;2.58;;;2.38;;
9964;SDS011;5023;53.554;9.964;2022-07-24T08:39:31;2.40;;;2.20;;
9964;SDS011;5023;53.554;9.964;2022-07-24T08:44:35;2.67;;;2.47;;
9964;SDS011;5023;53.554;9.964;2022-07-24T08:49:39;2.72;;;2.53;;
9964;SDS011;5023;53.554;9.964;2022-07-24T08:54:42;4.55;;;2.42;;
9964;SDS011;5023;53.554;9.964;2022-07-24T08:59:46;2.60;;;2.40;;
9964;SDS011;5023;53.554;9.964;2022-07-24T09:04:48;2.33;;;2.13;;
9964;SDS011;5023;53.554;9.964;2022-07-24T09:09:57;3.00;;;2.70;;
9964;SDS011;5023;53.554;9.964;2022-07-24T09:15:05;2.90;;;2.70;;
9964;SDS011;5023;53.554;9.964;2022-07-24T09:20:13;3.42;;;2.65;;
9964;SDS011;5023;53.554;9.964;2022-07-24T09:25:16;2.97;;;2.70;;
9964;SDS011;5023;53.554;9.964;2022-07-24T09:30:33;4.40;;;3.97;;
9964;SDS011;5023;53.554;9.964;2022-07-24T09:35:57;5.18;;;2.88;;
9964;SDS011;5023;53.554;9.964;2022-07-24T09:41:00;2.70;;;2.60;;
9964;SDS011;5023;53.554;9.964;2022-07-24T09:46:06;3.20;;;2.78;;
9964;SDS011;5023;53.554;9.964;2022-07-24T09:51:10;3.45;;;3.05;;
9964;SDS011;5023;53.554;9.964;2022-07-24T09:56:15;3.50;;;3.20;;
9964;SDS011;5023;53.554;9.964;2022-07-24T10:01:21;3.63;;;3.33;;
9964;SDS011;5023;53.554;9.964;2022-07-24T10:06:25;3.30;;;3.10;;
9964;SDS011;5023;53.554;9.964;2022-07-24T10:11:28;4.03;;;3.72;;
9964;SDS011;5023;53.554;9.964;2022-07-24T10:16:36;4.28;;;3.97;;
9964;SDS011;5023;53.554;9.964;2022-07-24T10:21:46;4.68;;;4.18;;
9964;SDS011;5023;53.554;9.964;2022-07-24T10:26:57;5.05;;;4.65;;
9964;SDS011;5023;53.554;9.964;2022-07-24T10:32:05;4.57;;;4.18;;
9964;SDS011;5023;53.554;9.964;2022-07-24T10:37:11;4.22;;;3.92;;
9964;SDS011;5023;53.554;9.964;2022-07-24T10:42:23;4.63;;;4.22;;
9964;SDS011;5023;53.554;9.964;2022-07-24T10:47:27;4.97;;;4.47;;
9964;SDS011;5023;53.554;9.964;2022-07-24T10:52:33;5.50;;;5.00;;
9964;SDS011;5023;53.554;9.964;2022-07-24T10:57:46;5.85;;;5.35;;
9964;SDS011;5023;53.554;9.964;2022-07-24T11:02:58;6.53;;;4.10;;
9964;SDS011;5023;53.554;9.964;2022-07-24T11:13:39;4.78;;;4.30;;
9964;SDS011;5023;53.554;9.964;2022-07-24T11:24:32;5.32;;;4.93;;
9964;SDS011;5023;53.554;9.964;2022-07-24T11:29:35;7.65;;;6.85;;
9964;SDS011;5023;53.554;9.964;2022-07-24T11:34:42;5.22;;;4.80;;
9964;SDS011;5023;53.554;9.964;2022-07-24T11:39:47;5.43;;;4.93;;
9964;SDS011;5023;53.554;9.964;2022-07-24T11:44:50;7.70;;;4.82;;
9964;SDS011;5023;53.554;9.964;2022-07-24T11:49:54;7.25;;;5.47;;
9964;SDS011;5023;53.554;9.964;2022-07-24T11:55:27;6.57;;;5.88;;
9964;SDS011;5023;53.554;9.964;2022-07-24T12:00:29;5.97;;;5.47;;
9964;SDS011;5023;53.554;9.964;2022-07-24T12:05:39;5.22;;;4.70;;
9964;SDS011;5023;53.554;9.964;2022-07-24T12:10:44;6.80;;;5.57;;
9964;SDS011;5023;53.554;9.964;2022-07-24T12:15:49;9.23;;;6.55;;
9964;SDS011;5023;53.554;9.964;2022-07-24T12:20:57;5.93;;;5.43;;
9964;SDS011;5023;53.554;9.964;2022-07-24T12:26:01;5.70;;;5.20;;
9964;SDS011;5023;53.554;9.964;2022-07-24T12:31:05;5.43;;;5.03;;
9964;SDS011;5023;53.554;9.964;2022-07-24T12:36:11;5.30;;;4.80;;
9964;SDS011;5023;53.554;9.964;2022-07-24T12:41:16;5.57;;;5.13;;
9964;SDS011;5023;53.554;9.964;2022-07-24T12:46:19;5.43;;;5.03;;
9964;SDS011;5023;53.554;9.964;2022-07-24T12:51:25;5.88;;;5.28;;
9964;SDS011;5023;53.554;9.964;2022-07-24T12:56:32;5.72;;;5.10;;
9964;SDS011;5023;53.554;9.964;2022-07-24T13:01:45;6.03;;;5.40;;
9964;SDS011;5023;53.554;9.964;2022-07-24T13:06:51;5.43;;;4.93;;
9964;SDS011;5023;53.554;9.964;2022-07-24T13:11:54;5.00;;;4.60;;
9964;SDS011;5023;53.554;9.964;2022-07-24T13:17:01;5.15;;;4.65;;
9964;SDS011;5023;53.554;9.964;2022-07-24T13:22:06;4.75;;;4.35;;
9964;SDS011;5023;53.554;9.964;2022-07-24T13:27:09;4.80;;;4.50;;
9964;SDS011;5023;53.554;9.964;2022-07-24T13:32:13;5.38;;;4.97;;
9964;SDS011;5023;53.554;9.964;2022-07-24T13:37:17;6.03;;;5.35;;
9964;SDS011;5023;53.554;9.964;2022-07-24T13:42:20;5.68;;;5.28;;
9964;SDS011;5023;53.554;9.964;2022-07-24T13:47:23;5.90;;;5.30;;
9964;SDS011;5023;53.554;9.964;2022-07-24T13:52:29;5.88;;;5.00;;
9964;SDS011;5023;53.554;9.964;2022-07-24T13:57:31;5.68;;;5.10;;
9964;SDS011;5023;53.554;9.964;2022-07-24T14:02:33;5.55;;;5.05;;
9964;SDS011;5023;53.554;9.964;2022-07-24T14:07:37;5.78;;;5.35;;
9964;SDS011;5023;53.554;9.964;2022-07-24T14:12:39;6.13;;;5.63;;
9964;SDS011;5023;53.554;9.964;2022-07-24T14:17:43;5.47;;;5.00;;
9964;SDS011;5023;53.554;9.964;2022-07-24T14:22:49;5.40;;;5.00;;
9964;SDS011;5023;53.554;9.964;2022-07-24T14:27:51;5.30;;;4.90;;
9964;SDS011;5023;53.554;9.964;2022-07-24T14:32:53;5.47;;;5.05;;
9964;SDS011;5023;53.554;9.964;2022-07-24T14:37:57;5.38;;;4.50;;
9964;SDS011;5023;53.554;9.964;2022-07-24T14:43:00;6.80;;;5.53;;
9964;SDS011;5023;53.554;9.964;2022-07-24T14:48:03;7.22;;;6.63;;
9964;SDS011;5023;53.554;9.964;2022-07-24T14:53:07;5.60;;;5.15;;
9964;SDS011;5023;53.554;9.964;2022-07-24T14:58:09;5.38;;;5.07;;
9964;SDS011;5023;53.554;9.964;2022-07-24T15:03:12;5.25;;;4.85;;
9964;SDS011;5023;53.554;9.964;2022-07-24T15:08:15;6.85;;;6.25;;
9964;SDS011;5023;53.554;9.964;2022-07-24T15:13:18;5.63;;;5.22;;
9964;SDS011;5023;53.554;9.964;2022-07-24T15:18:20;7.88;;;6.60;;
9964;SDS011;5023;53.554;9.964;2022-07-24T15:23:24;7.10;;;5.28;;
9964;SDS011;5023;53.554;9.964;2022-07-24T15:28:26;5.32;;;4.63;;
9964;SDS011;5023;53.554;9.964;2022-07-24T15:33:29;4.60;;;4.30;;
9964;SDS011;5023;53.554;9.964;2022-07-24T15:38:32;4.80;;;4.40;;
9964;SDS011;5023;53.554;9.964;2022-07-24T15:43:35;4.93;;;4.50;;
9964;SDS011;5023;53.554;9.964;2022-07-24T15:48:38;5.30;;;4.80;;
9964;SDS011;5023;53.554;9.964;2022-07-24T15:53:46;7.88;;;7.22;;
9964;SDS011;5023;53.554;9.964;2022-07-24T15:58:48;5.43;;;5.00;;
9964;SDS011;5023;53.554;9.964;2022-07-24T16:03:50;5.07;;;4.60;;
9964;SDS011;5023;53.554;9.964;2022-07-24T16:08:54;4.65;;;4.35;;
9964;SDS011;5023;53.554;9.964;2022-07-24T16:13:58;6.20;;;4.93;;
9964;SDS011;5023;53.554;9.964;2022-07-24T16:19:01;4.72;;;4.30;;
9964;SDS011;5023;53.554;9.964;2022-07-24T16:24:07;6.50;;;5.82;;
9964;SDS011;5023;53.554;9.964;2022-07-24T16:29:14;5.75;;;5.25;;
9964;SDS011;5023;53.554;9.964;2022-07-24T16:34:16;6.13;;;5.63;;
9964;SDS011;5023;53.554;9.964;2022-07-24T16:39:23;5.63;;;4.80;;
9964;SDS011;5023;53.554;9.964;2022-07-24T16:44:32;4.82;;;4.50;;
9964;SDS011;5023;53.554;9.964;2022-07-24T16:49:34;5.15;;;4.85;;
9964;SDS011;5023;53.554;9.964;2022-07-24T16:54:38;5.70;;;5.28;;
9964;SDS011;5023;53.554;9.964;2022-07-24T16:59:40;5.95;;;5.45;;
9964;SDS011;5023;53.554;9.964;2022-07-24T17:04:42;8.82;;;8.13;;
9964;SDS011;5023;53.554;9.964;2022-07-24T17:09:51;5.90;;;5.40;;
9964;SDS011;5023;53.554;9.964;2022-07-24T17:14:54;6.50;;;6.00;;
9964;SDS011;5023;53.554;9.964;2022-07-24T17:19:56;7.03;;;6.43;;
9964;SDS011;5023;53.554;9.964;2022-07-24T17:25:21;5.65;;;5.15;;
9964;SDS011;5023;53.554;9.964;2022-07-24T17:30:23;6.32;;;5.50;;
9964;SDS011;5023;53.554;9.964;2022-07-24T17:35:28;5.82;;;5.43;;
9964;SDS011;5023;53.554;9.964;2022-07-24T17:40:37;8.30;;;6.25;;
9964;SDS011;5023;53.554;9.964;2022-07-24T17:45:39;6.70;;;6.10;;
9964;SDS011;5023;53.554;9.964;2022-07-24T17:50:43;5.80;;;5.40;;
9964;SDS011;5023;53.554;9.964;2022-07-24T17:55:47;7.00;;;6.35;;
9964;SDS011;5023;53.554;9.964;2022-07-24T18:00:58;7.82;;;7.05;;
9964;SDS011;5023;53.554;9.964;2022-07-24T18:06:01;7.28;;;6.68;;
9964;SDS011;5023;53.554;9.964;2022-07-24T18:11:05;7.40;;;6.72;;
9964;SDS011;5023;53.554;9.964;2022-07-24T18:16:09;15.38;;;13.98;;
9964;SDS011;5023;53.554;9.964;2022-07-24T18:21:11;11.02;;;10.07;;
9964;SDS011;5023;53.554;9.964;2022-07-24T18:26:15;8.95;;;8.25;;
9964;SDS011;5023;53.554;9.964;2022-07-24T18:31:17;10.77;;;8.88;;
9964;SDS011;5023;53.554;9.964;2022-07-24T18:36:20;7.80;;;7.20;;
9964;SDS011;5023;53.554;9.964;2022-07-24T18:41:26;8.93;;;7.85;;
9964;SDS011;5023;53.554;9.964;2022-07-24T18:46:28;10.65;;;9.75;;
9964;SDS011;5023;53.554;9.964;2022-07-24T18:51:31;18.85;;;17.05;;
9964;SDS011;5023;53.554;9.964;2022-07-24T18:56:38;16.08;;;13.52;;
9964;SDS011;5023;53.554;9.964;2022-07-24T19:01:40;11.90;;;10.85;;
9964;SDS011;5023;53.554;9.964;2022-07-24T19:06:43;10.55;;;9.40;;
9964;SDS011;5023;53.554;9.964;2022-07-24T19:11:46;18.95;;;17.20;;
9964;SDS011;5023;53.554;9.964;2022-07-24T19:16:49;12.43;;;11.23;;
9964;SDS011;5023;53.554;9.964;2022-07-24T19:21:51;12.18;;;10.88;;
9964;SDS011;5023;53.554;9.964;2022-07-24T19:26:55;22.48;;;20.48;;
9964;SDS011;5023;53.554;9.964;2022-07-24T19:31:57;54.45;;;49.22;;
9964;SDS011;5023;53.554;9.964;2022-07-24T19:37:00;26.17;;;23.77;;
9964;SDS011;5023;53.554;9.964;2022-07-24T19:42:04;13.70;;;12.40;;
9964;SDS011;5023;53.554;9.964;2022-07-24T19:47:09;16.45;;;11.45;;
9964;SDS011;5023;53.554;9.964;2022-07-24T19:52:12;22.55;;;20.55;;
9964;SDS011;5023;53.554;9.964;2022-07-24T19:57:17;48.38;;;43.67;;
9964;SDS011;5023;53.554;9.964;2022-07-24T20:02:19;23.20;;;18.23;;
9964;SDS011;5023;53.554;9.964;2022-07-24T20:07:21;30.52;;;27.38;;
9964;SDS011;5023;53.554;9.964;2022-07-24T20:12:25;21.48;;;17.55;;
9964;SDS011;5023;53.554;9.964;2022-07-24T20:17:30;14.27;;;10.88;;
9964;SDS011;5023;53.554;9.964;2022-07-24T20:22:32;16.77;;;15.25;;
9964;SDS011;5023;53.554;9.964;2022-07-24T20:27:36;15.15;;;13.75;;
9964;SDS011;5023;53.554;9.964;2022-07-24T20:32:40;10.93;;;9.93;;
9964;SDS011;5023;53.554;9.964;2022-07-24T20:37:43;22.60;;;20.52;;
9964;SDS011;5023;53.554;9.964;2022-07-24T20:42:49;24.65;;;22.35;;
9964;SDS011;5023;53.554;9.964;2022-07-24T20:47:51;16.73;;;15.07;;
9964;SDS011;5023;53.554;9.964;2022-07-24T20:52:54;20.27;;;18.17;;
9964;SDS011;5023;53.554;9.964;2022-07-24T20:58:00;15.27;;;13.63;;
9964;SDS011;5023;53.554;9.964;2022-07-24T21:03:03;18.20;;;16.25;;
9964;SDS011;5023;53.554;9.964;2022-07-24T21:08:06;20.55;;;18.58;;
9964;SDS011;5023;53.554;9.964;2022-07-24T21:13:09;19.50;;;17.42;;
9964;SDS011;5023;53.554;9.964;2022-07-24T21:18:12;19.70;;;17.95;;
9964;SDS011;5023;53.554;9.964;2022-07-24T21:23:14;18.13;;;16.30;;
9964;SDS011;5023;53.554;9.964;2022-07-24T21:28:20;16.92;;;15.27;;
9964;SDS011;5023;53.554;9.964;2022-07-24T21:33:22;51.97;;;46.83;;
9964;SDS011;5023;53.554;9.964;2022-07-24T21:38:24;33.22;;;29.98;;
9964;SDS011;5023;53.554;9.964;2022-07-24T21:43:29;22.13;;;19.83;;
9964;SDS011;5023;53.554;9.964;2022-07-24T21:48:31;20.98;;;18.90;;
9964;SDS011;5023;53.554;9.964;2022-07-24T21:53:33;21.27;;;19.27;;
9964;SDS011;5023;53.554;9.964;2022-07-24T21:58:37;23.17;;;20.95;;
9964;SDS011;5023;53.554;9.964;2022-07-24T22:03:39;18.60;;;16.88;;
9964;SDS011;5023;53.554;9.964;2022-07-24T22:08:45;19.05;;;17.25;;
9964;SDS011;5023;53.554;9.964;2022-07-24T22:13:49;17.90;;;16.25;;
9964;SDS011;5023;53.554;9.964;2022-07-24T22:18:52;20.17;;;16.75;;
9964;SDS011;5023;53.554;9.964;2022-07-24T22:23:55;18.65;;;16.90;;
9964;SDS011;5023;53.554;9.964;2022-07-24T22:28:58;19.00;;;17.20;;
9964;SDS011;5023;53.554;9.964;2022-07-24T22:34:01;28.27;;;25.58;;
9964;SDS011;5023;53.554;9.964;2022-07-24T22:39:05;90.65;;;81.43;;
9964;SDS011;5023;53.554;9.964;2022-07-24T22:44:09;40.47;;;36.53;;
9964;SDS011;5023;53.554;9.964;2022-07-24T22:49:12;24.85;;;22.45;;
9964;SDS011;5023;53.554;9.964;2022-07-24T22:54:15;15.32;;;13.82;;
9964;SDS011;5023;53.554;9.964;2022-07-24T22:59:19;14.63;;;12.98;;
9964;SDS011;5023;53.554;9.964;2022-07-24T23:04:21;12.20;;;11.00;;
9964;SDS011;5023;53.554;9.964;2022-07-24T23:09:23;8.23;;;7.53;;
9964;SDS011;5023;53.554;9.964;2022-07-24T23:14:29;7.78;;;7.18;;
9964;SDS011;5023;53.554;9.964;2022-07-24T23:19:31;9.20;;;7.55;;
9964;SDS011;5023;53.554;9.964;2022-07-24T23:24:35;8.27;;;7.47;;
9964;SDS011;5023;53.554;9.964;2022-07-24T23:29:38;7.07;;;6.57;;
9964;SDS011;5023;53.554;9.964;2022-07-24T23:34:41;7.32;;;6.57;;
9964;SDS011;5023;53.554;9.964;2022-07-24T23:39:43;8.25;;;7.50;;
9964;SDS011;5023;53.554;9.964;2022-07-24T23:44:49;15.13;;;13.82;;
9964;SDS011;5023;53.554;9.964;2022-07-24T23:49:52;10.05;;;9.13;;
9964;SDS011;5023;53.554;9.964;2022-07-24T23:54:56;8.73;;;8.02;;
